sensor_id;sensor_type;location;lat;lon;timestamp;pressure;altitude;pressure_sealevel;temperature
76541;BMP280;65385;55.772;37.658;2023-04-25T00:00:28;99608.81;;;13.04
76541;BMP280;65385;55.772;37.658;2023-04-25T00:01:29;99611.72;;;13.03
76541;BMP280;65385;55.772;37.658;2023-04-25T00:02:30;99600.44;;;13.02
76541;BMP280;65385;55.772;37.658;2023-04-25T00:03:33;99610.16;;;13.02
76541;BMP280;65385;55.772;37.658;2023-04-25T00:04:33;99599.91;;;13.00
76541;BMP280;65385;55.772;37.658;2023-04-25T00:05:34;99608.59;;;13.01
76541;BMP280;65385;55.772;37.658;2023-04-25T00:06:37;99610.16;;;13.02
76541;BMP280;65385;55.772;37.658;2023-04-25T00:07:38;99605.69;;;13.02
76541;BMP280;65385;55.772;37.658;2023-04-25T00:08:39;99594.41;;;13.02
76541;BMP280;65385;55.772;37.658;2023-04-25T00:09:41;99601.75;;;13.00
76541;BMP280;65385;55.772;37.658;2023-04-25T00:10:42;99603.84;;;13.03
76541;BMP280;65385;55.772;37.658;2023-04-25T00:11:42;99600.19;;;13.04
76541;BMP280;65385;55.772;37.658;2023-04-25T00:12:44;99606.69;;;13.06
76541;BMP280;65385;55.772;37.658;2023-04-25T00:13:45;99613.50;;;13.07
76541;BMP280;65385;55.772;37.658;2023-04-25T00:14:46;99609.03;;;13.08
76541;BMP280;65385;55.772;37.658;2023-04-25T00:15:47;99608.00;;;13.09
76541;BMP280;65385;55.772;37.658;2023-04-25T00:16:48;99606.94;;;13.10
76541;BMP280;65385;55.772;37.658;2023-04-25T00:17:51;99604.81;;;13.12
76541;BMP280;65385;55.772;37.658;2023-04-25T00:18:53;99607.13;;;13.13
76541;BMP280;65385;55.772;37.658;2023-04-25T00:19:54;99608.72;;;13.14
76541;BMP280;65385;55.772;37.658;2023-04-25T00:20:55;99601.63;;;13.15
76541;BMP280;65385;55.772;37.658;2023-04-25T00:21:56;99613.69;;;13.16
76541;BMP280;65385;55.772;37.658;2023-04-25T00:22:56;99613.41;;;13.17
76541;BMP280;65385;55.772;37.658;2023-04-25T00:23:57;99607.09;;;13.18
76541;BMP280;65385;55.772;37.658;2023-04-25T00:24:58;99611.31;;;13.19
76541;BMP280;65385;55.772;37.658;2023-04-25T00:26:00;99612.59;;;13.22
76541;BMP280;65385;55.772;37.658;2023-04-25T00:27:01;99611.78;;;13.21
76541;BMP280;65385;55.772;37.658;2023-04-25T00:28:01;99611.53;;;13.23
76541;BMP280;65385;55.772;37.658;2023-04-25T00:29:02;99612.28;;;13.23
76541;BMP280;65385;55.772;37.658;2023-04-25T00:30:04;99613.38;;;13.22
76541;BMP280;65385;55.772;37.658;2023-04-25T00:31:07;99610.44;;;13.24
76541;BMP280;65385;55.772;37.658;2023-04-25T00:32:07;99601.03;;;13.23
76541;BMP280;65385;55.772;37.658;2023-04-25T00:33:09;99595.75;;;13.23
76541;BMP280;65385;55.772;37.658;2023-04-25T00:34:10;99599.94;;;13.24
76541;BMP280;65385;55.772;37.658;2023-04-25T00:35:10;99597.31;;;13.24
76541;BMP280;65385;55.772;37.658;2023-04-25T00:36:11;99588.38;;;13.25
76541;BMP280;65385;55.772;37.658;2023-04-25T00:37:12;99597.31;;;13.24
76541;BMP280;65385;55.772;37.658;2023-04-25T00:38:12;99600.47;;;13.26
76541;BMP280;65385;55.772;37.658;2023-04-25T00:39:13;99598.88;;;13.25
76541;BMP280;65385;55.772;37.658;2023-04-25T00:40:14;99599.41;;;13.27
76541;BMP280;65385;55.772;37.658;2023-04-25T00:41:15;99600.47;;;13.26
76541;BMP280;65385;55.772;37.658;2023-04-25T00:42:16;99601.25;;;13.26
76541;BMP280;65385;55.772;37.658;2023-04-25T00:43:17;99606.50;;;13.26
76541;BMP280;65385;55.772;37.658;2023-04-25T00:44:17;99611.22;;;13.24
76541;BMP280;65385;55.772;37.658;2023-04-25T00:45:28;99610.44;;;13.24
76541;BMP280;65385;55.772;37.658;2023-04-25T00:46:36;99600.00;;;13.19
76541;BMP280;65385;55.772;37.658;2023-04-25T00:47:37;99606.59;;;13.16
76541;BMP280;65385;55.772;37.658;2023-04-25T00:48:38;99605.81;;;13.16
76541;BMP280;65385;55.772;37.658;2023-04-25T00:49:39;99603.47;;;13.14
76541;BMP280;65385;55.772;37.658;2023-04-25T00:50:40;99602.19;;;13.12
76541;BMP280;65385;55.772;37.658;2023-04-25T00:51:41;99597.47;;;13.09
76541;BMP280;65385;55.772;37.658;2023-04-25T00:52:43;99611.66;;;13.08
76541;BMP280;65385;55.772;37.658;2023-04-25T00:53:45;99601.72;;;13.05
76541;BMP280;65385;55.772;37.658;2023-04-25T00:54:46;99610.16;;;13.02
76541;BMP280;65385;55.772;37.658;2023-04-25T00:55:47;99612.25;;;13.00
76541;BMP280;65385;55.772;37.658;2023-04-25T00:56:48;99599.19;;;12.95
76541;BMP280;65385;55.772;37.658;2023-04-25T00:57:49;99616.00;;;12.94
76541;BMP280;65385;55.772;37.658;2023-04-25T00:58:53;99608.97;;;12.89
76541;BMP280;65385;55.772;37.658;2023-04-25T00:59:55;99618.16;;;12.87
76541;BMP280;65385;55.772;37.658;2023-04-25T01:00:57;99611.94;;;12.82
76541;BMP280;65385;55.772;37.658;2023-04-25T01:01:58;99603.28;;;12.77
76541;BMP280;65385;55.772;37.658;2023-04-25T01:02:59;99610.38;;;12.76
76541;BMP280;65385;55.772;37.658;2023-04-25T01:04:00;99614.59;;;12.72
76541;BMP280;65385;55.772;37.658;2023-04-25T01:05:02;99608.06;;;12.70
76541;BMP280;65385;55.772;37.658;2023-04-25T01:06:10;99611.25;;;12.67
76541;BMP280;65385;55.772;37.658;2023-04-25T01:07:11;99606.53;;;12.64
76541;BMP280;65385;55.772;37.658;2023-04-25T01:08:12;99605.53;;;12.60
76541;BMP280;65385;55.772;37.658;2023-04-25T01:09:13;99598.97;;;12.57
76541;BMP280;65385;55.772;37.658;2023-04-25T01:10:15;99605.28;;;12.56
76541;BMP280;65385;55.772;37.658;2023-04-25T01:11:16;99606.34;;;12.55
76541;BMP280;65385;55.772;37.658;2023-04-25T01:12:16;99608.47;;;12.53
76541;BMP280;65385;55.772;37.658;2023-04-25T01:13:17;99604.28;;;12.52
76541;BMP280;65385;55.772;37.658;2023-04-25T01:14:18;99603.75;;;12.50
76541;BMP280;65385;55.772;37.658;2023-04-25T01:15:18;99603.75;;;12.50
76541;BMP280;65385;55.772;37.658;2023-04-25T01:16:19;99606.66;;;12.49
76541;BMP280;65385;55.772;37.658;2023-04-25T01:17:20;99604.03;;;12.49
76541;BMP280;65385;55.772;37.658;2023-04-25T01:18:21;99599.84;;;12.48
76541;BMP280;65385;55.772;37.658;2023-04-25T01:19:22;99596.97;;;12.49
76541;BMP280;65385;55.772;37.658;2023-04-25T01:20:24;99601.41;;;12.49
76541;BMP280;65385;55.772;37.658;2023-04-25T01:21:25;99602.19;;;12.49
76541;BMP280;65385;55.772;37.658;2023-04-25T01:22:28;99605.88;;;12.48
76541;BMP280;65385;55.772;37.658;2023-04-25T01:23:28;99600.88;;;12.52
76541;BMP280;65385;55.772;37.658;2023-04-25T01:24:31;99596.41;;;12.52
76541;BMP280;65385;55.772;37.658;2023-04-25T01:25:32;99588.78;;;12.51
76541;BMP280;65385;55.772;37.658;2023-04-25T01:26:34;99595.34;;;12.53
76541;BMP280;65385;55.772;37.658;2023-04-25T01:27:36;99597.97;;;12.53
76541;BMP280;65385;55.772;37.658;2023-04-25T01:28:39;99593.53;;;12.54
76541;BMP280;65385;55.772;37.658;2023-04-25T01:29:41;99592.44;;;12.55
76541;BMP280;65385;55.772;37.658;2023-04-25T01:30:43;99587.19;;;12.55
76541;BMP280;65385;55.772;37.658;2023-04-25T01:31:44;99580.41;;;12.54
76541;BMP280;65385;55.772;37.658;2023-04-25T01:32:46;99589.56;;;12.56
76541;BMP280;65385;55.772;37.658;2023-04-25T01:33:48;99582.19;;;12.58
76541;BMP280;65385;55.772;37.658;2023-04-25T01:34:49;99581.13;;;12.59
76541;BMP280;65385;55.772;37.658;2023-04-25T01:35:49;99577.47;;;12.60
76541;BMP280;65385;55.772;37.658;2023-04-25T01:36:53;99573.00;;;12.61
76541;BMP280;65385;55.772;37.658;2023-04-25T01:37:54;99576.13;;;12.63
76541;BMP280;65385;55.772;37.658;2023-04-25T01:38:56;99580.03;;;12.65
76541;BMP280;65385;55.772;37.658;2023-04-25T01:39:57;99578.19;;;12.66
76541;BMP280;65385;55.772;37.658;2023-04-25T01:40:58;99577.13;;;12.67
76541;BMP280;65385;55.772;37.658;2023-04-25T01:41:59;99583.44;;;12.66
76541;BMP280;65385;55.772;37.658;2023-04-25T01:43:00;99582.91;;;12.69
76541;BMP280;65385;55.772;37.658;2023-04-25T01:44:02;99583.66;;;12.69
76541;BMP280;65385;55.772;37.658;2023-04-25T01:45:03;99587.88;;;12.70
76541;BMP280;65385;55.772;37.658;2023-04-25T01:46:04;99577.84;;;12.72
76541;BMP280;65385;55.772;37.658;2023-04-25T01:47:05;99586.53;;;12.73
76541;BMP280;65385;55.772;37.658;2023-04-25T01:48:07;99584.41;;;12.75
76541;BMP280;65385;55.772;37.658;2023-04-25T01:49:08;99577.34;;;12.75
76541;BMP280;65385;55.772;37.658;2023-04-25T01:50:09;99585.66;;;12.77
76541;BMP280;65385;55.772;37.658;2023-04-25T01:51:12;99575.19;;;12.77
76541;BMP280;65385;55.772;37.658;2023-04-25T01:52:12;99580.44;;;12.77
76541;BMP280;65385;55.772;37.658;2023-04-25T01:53:13;99579.09;;;12.80
76541;BMP280;65385;55.772;37.658;2023-04-25T01:54:16;99583.56;;;12.79
76541;BMP280;65385;55.772;37.658;2023-04-25T01:55:20;99580.69;;;12.81
76541;BMP280;65385;55.772;37.658;2023-04-25T01:56:32;99580.41;;;12.82
76541;BMP280;65385;55.772;37.658;2023-04-25T01:57:33;99573.00;;;12.84
76541;BMP280;65385;55.772;37.658;2023-04-25T01:58:35;99578.53;;;12.88
76541;BMP280;65385;55.772;37.658;2023-04-25T02:00:02;99576.69;;;12.89
76541;BMP280;65385;55.772;37.658;2023-04-25T02:01:15;99574.56;;;12.91
76541;BMP280;65385;55.772;37.658;2023-04-25T02:02:22;99572.69;;;12.91
76541;BMP280;65385;55.772;37.658;2023-04-25T02:03:24;99576.34;;;12.95
76541;BMP280;65385;55.772;37.658;2023-04-25T02:04:25;99573.72;;;12.95
76541;BMP280;65385;55.772;37.658;2023-04-25T02:05:26;99576.09;;;12.97
76541;BMP280;65385;55.772;37.658;2023-04-25T02:06:27;99575.00;;;12.98
76541;BMP280;65385;55.772;37.658;2023-04-25T02:07:30;99570.84;;;12.97
76541;BMP280;65385;55.772;37.658;2023-04-25T02:08:31;99575.00;;;12.98
76541;BMP280;65385;55.772;37.658;2023-04-25T02:09:31;99571.88;;;12.96
76541;BMP280;65385;55.772;37.658;2023-04-25T02:10:33;99568.22;;;12.97
76541;BMP280;65385;55.772;37.658;2023-04-25T02:11:44;99571.59;;;12.97
76541;BMP280;65385;55.772;37.658;2023-04-25T02:13:07;99566.38;;;12.92
76541;BMP280;65385;55.772;37.658;2023-04-25T02:14:20;99563.75;;;12.92
76541;BMP280;65385;55.772;37.658;2023-04-25T02:15:27;99564.53;;;12.93
76541;BMP280;65385;55.772;37.658;2023-04-25T02:16:32;99567.44;;;12.91
76541;BMP280;65385;55.772;37.658;2023-04-25T02:17:34;99561.44;;;12.91
76541;BMP280;65385;55.772;37.658;2023-04-25T02:18:35;99555.09;;;12.92
76541;BMP280;65385;55.772;37.658;2023-04-25T02:19:40;99559.81;;;12.95
76541;BMP280;65385;55.772;37.658;2023-04-25T02:20:42;99566.34;;;12.97
76541;BMP280;65385;55.772;37.658;2023-04-25T02:21:43;99553.22;;;12.97
76541;BMP280;65385;55.772;37.658;2023-04-25T02:22:45;99556.06;;;13.01
76541;BMP280;65385;55.772;37.658;2023-04-25T02:23:46;99559.22;;;13.03
76541;BMP280;65385;55.772;37.658;2023-04-25T02:24:49;99556.28;;;13.04
76541;BMP280;65385;55.772;37.658;2023-04-25T02:25:50;99560.72;;;13.09
76541;BMP280;65385;55.772;37.658;2023-04-25T02:26:51;99562.78;;;13.12
76541;BMP280;65385;55.772;37.658;2023-04-25T02:27:52;99556.97;;;13.15
76541;BMP280;65385;55.772;37.658;2023-04-25T02:28:54;99560.59;;;13.19
76541;BMP280;65385;55.772;37.658;2023-04-25T02:29:55;99555.84;;;13.21
76541;BMP280;65385;55.772;37.658;2023-04-25T02:30:55;99561.28;;;13.29
76541;BMP280;65385;55.772;37.658;2023-04-25T02:31:58;99553.63;;;13.33
76541;BMP280;65385;55.772;37.658;2023-04-25T02:33:00;99559.84;;;13.37
76541;BMP280;65385;55.772;37.658;2023-04-25T02:34:01;99568.78;;;13.41
76541;BMP280;65385;55.772;37.658;2023-04-25T02:35:02;99560.53;;;13.48
76541;BMP280;65385;55.772;37.658;2023-04-25T02:36:06;99556.28;;;13.52
76541;BMP280;65385;55.772;37.658;2023-04-25T02:37:07;99556.97;;;13.57
76541;BMP280;65385;55.772;37.658;2023-04-25T02:38:07;99560.34;;;13.63
76541;BMP280;65385;55.772;37.658;2023-04-25T02:39:08;99556.34;;;13.65
76541;BMP280;65385;55.772;37.658;2023-04-25T02:40:09;99563.63;;;13.73
76541;BMP280;65385;55.772;37.658;2023-04-25T02:41:10;99559.38;;;13.77
76541;BMP280;65385;55.772;37.658;2023-04-25T02:42:10;99558.50;;;13.82
76541;BMP280;65385;55.772;37.658;2023-04-25T02:43:11;99559.78;;;13.84
76541;BMP280;65385;55.772;37.658;2023-04-25T02:44:12;99558.75;;;13.86
76541;BMP280;65385;55.772;37.658;2023-04-25T02:45:12;99553.41;;;13.91
76541;BMP280;65385;55.772;37.658;2023-04-25T02:46:13;99559.63;;;13.95
76541;BMP280;65385;55.772;37.658;2023-04-25T02:47:14;99558.03;;;13.99
76541;BMP280;65385;55.772;37.658;2023-04-25T02:48:16;99559.25;;;14.01
76541;BMP280;65385;55.772;37.658;2023-04-25T02:49:17;99558.41;;;14.06
76541;BMP280;65385;55.772;37.658;2023-04-25T02:50:19;99557.56;;;14.10
76541;BMP280;65385;55.772;37.658;2023-04-25T02:51:20;99549.38;;;14.12
76541;BMP280;65385;55.772;37.658;2023-04-25T02:52:20;99549.38;;;14.12
76541;BMP280;65385;55.772;37.658;2023-04-25T02:53:29;99560.31;;;14.19
76541;BMP280;65385;55.772;37.658;2023-04-25T02:54:30;99552.63;;;14.22
76541;BMP280;65385;55.772;37.658;2023-04-25T02:55:32;99556.00;;;14.28
76541;BMP280;65385;55.772;37.658;2023-04-25T02:56:35;99557.94;;;14.36
76541;BMP280;65385;55.772;37.658;2023-04-25T02:57:36;99558.84;;;14.45
76541;BMP280;65385;55.772;37.658;2023-04-25T02:58:36;99560.78;;;14.53
76541;BMP280;65385;55.772;37.658;2023-04-25T02:59:37;99556.97;;;14.64
76541;BMP280;65385;55.772;37.658;2023-04-25T03:00:38;99559.09;;;14.76
76541;BMP280;65385;55.772;37.658;2023-04-25T03:01:38;99556.97;;;14.92
76541;BMP280;65385;55.772;37.658;2023-04-25T03:02:39;99567.78;;;15.17
76541;BMP280;65385;55.772;37.658;2023-04-25T03:03:39;99562.03;;;15.42
76541;BMP280;65385;55.772;37.658;2023-04-25T03:04:40;99568.00;;;15.70
76541;BMP280;65385;55.772;37.658;2023-04-25T03:05:42;99565.22;;;15.89
76541;BMP280;65385;55.772;37.658;2023-04-25T03:06:42;99562.31;;;15.99
76541;BMP280;65385;55.772;37.658;2023-04-25T03:07:43;99567.31;;;16.01
76541;BMP280;65385;55.772;37.658;2023-04-25T03:08:44;99566.75;;;16.04
76541;BMP280;65385;55.772;37.658;2023-04-25T03:09:45;99574.16;;;16.02
76541;BMP280;65385;55.772;37.658;2023-04-25T03:10:46;99564.03;;;15.95
76541;BMP280;65385;55.772;37.658;2023-04-25T03:11:49;99576.44;;;15.94
76541;BMP280;65385;55.772;37.658;2023-04-25T03:12:51;99578.09;;;15.90
76541;BMP280;65385;55.772;37.658;2023-04-25T03:13:52;99572.78;;;15.82
76541;BMP280;65385;55.772;37.658;2023-04-25T03:14:54;99574.72;;;15.76
76541;BMP280;65385;55.772;37.658;2023-04-25T03:15:55;99581.66;;;15.72
76541;BMP280;65385;55.772;37.658;2023-04-25T03:16:55;99574.47;;;15.64
76541;BMP280;65385;55.772;37.658;2023-04-25T03:17:56;99573.53;;;15.60
76541;BMP280;65385;55.772;37.658;2023-04-25T03:18:57;99578.88;;;15.55
76541;BMP280;65385;55.772;37.658;2023-04-25T03:19:58;99573.91;;;15.54
76541;BMP280;65385;55.772;37.658;2023-04-25T03:20:59;99575.28;;;15.51
76541;BMP280;65385;55.772;37.658;2023-04-25T03:22:00;99572.66;;;15.51
76541;BMP280;65385;55.772;37.658;2023-04-25T03:23:01;99577.44;;;15.49
76541;BMP280;65385;55.772;37.658;2023-04-25T03:24:04;99581.94;;;15.49
76541;BMP280;65385;55.772;37.658;2023-04-25T03:25:05;99583.00;;;15.48
76541;BMP280;65385;55.772;37.658;2023-04-25T03:26:06;99577.72;;;15.48
76541;BMP280;65385;55.772;37.658;2023-04-25T03:27:07;99577.44;;;15.49
76541;BMP280;65385;55.772;37.658;2023-04-25T03:28:07;99578.97;;;15.50
76541;BMP280;65385;55.772;37.658;2023-04-25T03:29:08;99581.53;;;15.55
76541;BMP280;65385;55.772;37.658;2023-04-25T03:30:10;99581.88;;;15.62
76541;BMP280;65385;55.772;37.658;2023-04-25T03:31:12;99581.47;;;15.69
76541;BMP280;65385;55.772;37.658;2023-04-25T03:32:12;99581.88;;;15.76
76541;BMP280;65385;55.772;37.658;2023-04-25T03:33:13;99579.41;;;15.79
76541;BMP280;65385;55.772;37.658;2023-04-25T03:34:14;99578.72;;;15.87
76541;BMP280;65385;55.772;37.658;2023-04-25T03:35:15;99579.66;;;15.91
76541;BMP280;65385;55.772;37.658;2023-04-25T03:36:16;99581.28;;;16.01
76541;BMP280;65385;55.772;37.658;2023-04-25T03:37:16;99579.97;;;16.12
76541;BMP280;65385;55.772;37.658;2023-04-25T03:38:17;99576.81;;;16.24
76541;BMP280;65385;55.772;37.658;2023-04-25T03:39:19;99576.72;;;16.37
76541;BMP280;65385;55.772;37.658;2023-04-25T03:40:23;99581.69;;;16.61
76541;BMP280;65385;55.772;37.658;2023-04-25T03:41:53;99579.66;;;16.97
76541;BMP280;65385;55.772;37.658;2023-04-25T03:42:55;99582.66;;;17.30
76541;BMP280;65385;55.772;37.658;2023-04-25T03:43:55;99581.44;;;17.62
76541;BMP280;65385;55.772;37.658;2023-04-25T03:44:56;99583.00;;;17.97
76541;BMP280;65385;55.772;37.658;2023-04-25T03:45:57;99580.75;;;18.25
76541;BMP280;65385;55.772;37.658;2023-04-25T03:46:59;99579.78;;;18.47
76541;BMP280;65385;55.772;37.658;2023-04-25T03:47:59;99579.72;;;18.64
76541;BMP280;65385;55.772;37.658;2023-04-25T03:49:02;99574.69;;;18.71
76541;BMP280;65385;55.772;37.658;2023-04-25T03:50:22;99581.53;;;18.72
76541;BMP280;65385;55.772;37.658;2023-04-25T03:51:22;99576.75;;;18.57
76541;BMP280;65385;55.772;37.658;2023-04-25T03:52:23;99573.34;;;18.56
76541;BMP280;65385;55.772;37.658;2023-04-25T03:53:24;99574.22;;;18.69
76541;BMP280;65385;55.772;37.658;2023-04-25T03:54:53;99572.81;;;19.01
76541;BMP280;65385;55.772;37.658;2023-04-25T03:55:57;99572.88;;;19.13
76541;BMP280;65385;55.772;37.658;2023-04-25T03:56:58;99563.31;;;19.20
76541;BMP280;65385;55.772;37.658;2023-04-25T03:58:01;99570.34;;;19.46
76541;BMP280;65385;55.772;37.658;2023-04-25T03:59:02;99572.75;;;19.71
76541;BMP280;65385;55.772;37.658;2023-04-25T04:00:05;99575.06;;;20.06
76541;BMP280;65385;55.772;37.658;2023-04-25T04:01:14;99578.22;;;20.32
76541;BMP280;65385;55.772;37.658;2023-04-25T04:02:17;99571.47;;;20.58
76541;BMP280;65385;55.772;37.658;2023-04-25T04:03:18;99572.00;;;20.64
76541;BMP280;65385;55.772;37.658;2023-04-25T04:04:19;99574.69;;;20.64
76541;BMP280;65385;55.772;37.658;2023-04-25T04:05:19;99580.41;;;20.90
76541;BMP280;65385;55.772;37.658;2023-04-25T04:06:26;99575.16;;;21.18
76541;BMP280;65385;55.772;37.658;2023-04-25T04:07:35;99575.81;;;21.43
76541;BMP280;65385;55.772;37.658;2023-04-25T04:08:40;99571.78;;;21.61
76541;BMP280;65385;55.772;37.658;2023-04-25T04:09:42;99570.88;;;21.84
76541;BMP280;65385;55.772;37.658;2023-04-25T04:10:48;99566.09;;;22.06
76541;BMP280;65385;55.772;37.658;2023-04-25T04:11:49;99570.81;;;22.12
76541;BMP280;65385;55.772;37.658;2023-04-25T04:12:50;99566.94;;;22.25
76541;BMP280;65385;55.772;37.658;2023-04-25T04:13:51;99562.09;;;22.46
76541;BMP280;65385;55.772;37.658;2023-04-25T04:14:52;99563.91;;;22.58
76541;BMP280;65385;55.772;37.658;2023-04-25T04:15:53;99564.38;;;22.64
76541;BMP280;65385;55.772;37.658;2023-04-25T04:16:54;99567.59;;;22.88
76541;BMP280;65385;55.772;37.658;2023-04-25T04:17:55;99565.66;;;22.85
76541;BMP280;65385;55.772;37.658;2023-04-25T04:18:56;99567.47;;;23.00
76541;BMP280;65385;55.772;37.658;2023-04-25T04:19:58;99567.31;;;22.93
76541;BMP280;65385;55.772;37.658;2023-04-25T04:20:59;99568.38;;;23.08
76541;BMP280;65385;55.772;37.658;2023-04-25T04:22:03;99563.59;;;23.17
76541;BMP280;65385;55.772;37.658;2023-04-25T04:23:03;99566.28;;;23.36
76541;BMP280;65385;55.772;37.658;2023-04-25T04:24:05;99563.25;;;23.38
76541;BMP280;65385;55.772;37.658;2023-04-25T04:25:15;99564.03;;;23.61
76541;BMP280;65385;55.772;37.658;2023-04-25T04:26:35;99565.00;;;23.72
76541;BMP280;65385;55.772;37.658;2023-04-25T04:28:30;99561.63;;;23.98
76541;BMP280;65385;55.772;37.658;2023-04-25T04:29:39;99565.81;;;23.99
76541;BMP280;65385;55.772;37.658;2023-04-25T04:31:02;99558.09;;;24.16
76541;BMP280;65385;55.772;37.658;2023-04-25T04:32:04;99564.63;;;24.19
76541;BMP280;65385;55.772;37.658;2023-04-25T04:33:06;99559.19;;;24.38
76541;BMP280;65385;55.772;37.658;2023-04-25T04:34:07;99564.34;;;24.27
76541;BMP280;65385;55.772;37.658;2023-04-25T04:35:10;99567.41;;;24.26
76541;BMP280;65385;55.772;37.658;2023-04-25T04:36:13;99569.03;;;24.34
76541;BMP280;65385;55.772;37.658;2023-04-25T04:37:14;99571.16;;;24.47
76541;BMP280;65385;55.772;37.658;2023-04-25T04:38:16;99561.59;;;24.46
76541;BMP280;65385;55.772;37.658;2023-04-25T04:39:16;99568.16;;;24.79
76541;BMP280;65385;55.772;37.658;2023-04-25T04:40:29;99566.03;;;24.95
76541;BMP280;65385;55.772;37.658;2023-04-25T04:41:54;99567.53;;;25.26
76541;BMP280;65385;55.772;37.658;2023-04-25T04:43:25;99576.09;;;25.38
76541;BMP280;65385;55.772;37.658;2023-04-25T04:44:25;99568.09;;;25.42
76541;BMP280;65385;55.772;37.658;2023-04-25T04:45:45;99566.34;;;25.56
76541;BMP280;65385;55.772;37.658;2023-04-25T04:47:04;99568.22;;;25.56
76541;BMP280;65385;55.772;37.658;2023-04-25T04:48:26;99571.41;;;25.72
76541;BMP280;65385;55.772;37.658;2023-04-25T04:49:34;99565.97;;;25.61
76541;BMP280;65385;55.772;37.658;2023-04-25T04:51:05;99558.44;;;25.77
76541;BMP280;65385;55.772;37.658;2023-04-25T04:52:25;99570.69;;;25.78
76541;BMP280;65385;55.772;37.658;2023-04-25T04:53:36;99567.84;;;26.08
76541;BMP280;65385;55.772;37.658;2023-04-25T04:55:03;99569.91;;;25.74
76541;BMP280;65385;55.772;37.658;2023-04-25T04:56:37;99564.78;;;25.59
76541;BMP280;65385;55.772;37.658;2023-04-25T04:58:00;99577.69;;;25.93
76541;BMP280;65385;55.772;37.658;2023-04-25T04:59:12;99559.16;;;25.71
76541;BMP280;65385;55.772;37.658;2023-04-25T05:00:48;99563.03;;;25.80
76541;BMP280;65385;55.772;37.658;2023-04-25T05:02:06;99555.16;;;25.98
76541;BMP280;65385;55.772;37.658;2023-04-25T05:03:21;99558.19;;;26.00
76541;BMP280;65385;55.772;37.658;2023-04-25T05:04:36;99565.66;;;26.21
76541;BMP280;65385;55.772;37.658;2023-04-25T05:06:05;99565.25;;;26.19
76541;BMP280;65385;55.772;37.658;2023-04-25T05:07:36;99560.69;;;26.26
76541;BMP280;65385;55.772;37.658;2023-04-25T05:08:42;99557.94;;;26.12
76541;BMP280;65385;55.772;37.658;2023-04-25T05:09:43;99563.63;;;26.04
76541;BMP280;65385;55.772;37.658;2023-04-25T05:10:54;99562.13;;;26.06
76541;BMP280;65385;55.772;37.658;2023-04-25T05:12:13;99560.25;;;26.17
76541;BMP280;65385;55.772;37.658;2023-04-25T05:13:32;99556.31;;;26.01
76541;BMP280;65385;55.772;37.658;2023-04-25T05:14:41;99556.72;;;25.99
76541;BMP280;65385;55.772;37.658;2023-04-25T05:16:01;99551.69;;;25.98
76541;BMP280;65385;55.772;37.658;2023-04-25T05:17:24;99555.66;;;26.18
76541;BMP280;65385;55.772;37.658;2023-04-25T05:18:31;99554.81;;;26.00
76541;BMP280;65385;55.772;37.658;2023-04-25T05:19:40;99550.19;;;26.04
76541;BMP280;65385;55.772;37.658;2023-04-25T05:21:09;99551.91;;;26.26
76541;BMP280;65385;55.772;37.658;2023-04-25T05:22:32;99548.09;;;26.37
76541;BMP280;65385;55.772;37.658;2023-04-25T05:24:11;99555.44;;;26.47
76541;BMP280;65385;55.772;37.658;2023-04-25T05:25:30;99553.59;;;26.55
76541;BMP280;65385;55.772;37.658;2023-04-25T05:26:40;99557.28;;;26.29
76541;BMP280;65385;55.772;37.658;2023-04-25T05:27:56;99555.09;;;26.56
76541;BMP280;65385;55.772;37.658;2023-04-25T05:29:32;99552.13;;;26.82
76541;BMP280;65385;55.772;37.658;2023-04-25T05:30:51;99547.56;;;26.90
76541;BMP280;65385;55.772;37.658;2023-04-25T05:32:02;99543.75;;;26.98
76541;BMP280;65385;55.772;37.658;2023-04-25T05:33:03;99548.75;;;27.03
76541;BMP280;65385;55.772;37.658;2023-04-25T05:34:04;99552.59;;;27.19
76541;BMP280;65385;55.772;37.658;2023-04-25T05:35:18;99547.63;;;27.28
76541;BMP280;65385;55.772;37.658;2023-04-25T05:36:21;99544.91;;;27.07
76541;BMP280;65385;55.772;37.658;2023-04-25T05:37:22;99551.47;;;27.31
76541;BMP280;65385;55.772;37.658;2023-04-25T05:38:32;99552.59;;;27.19
76541;BMP280;65385;55.772;37.658;2023-04-25T05:39:53;99546.44;;;26.94
76541;BMP280;65385;55.772;37.658;2023-04-25T05:41:26;99548.19;;;26.48
76541;BMP280;65385;55.772;37.658;2023-04-25T05:42:32;99553.22;;;25.95
76541;BMP280;65385;55.772;37.658;2023-04-25T05:43:51;99553.59;;;25.46
76541;BMP280;65385;55.772;37.658;2023-04-25T05:44:57;99555.56;;;25.12
76541;BMP280;65385;55.772;37.658;2023-04-25T05:46:24;99551.00;;;24.87
76541;BMP280;65385;55.772;37.658;2023-04-25T05:47:49;99552.72;;;24.69
76541;BMP280;65385;55.772;37.658;2023-04-25T05:49:10;99553.91;;;24.45
76541;BMP280;65385;55.772;37.658;2023-04-25T05:50:31;99556.25;;;24.46
76541;BMP280;65385;55.772;37.658;2023-04-25T05:51:38;99553.38;;;24.62
76541;BMP280;65385;55.772;37.658;2023-04-25T05:53:05;99546.88;;;24.93
76541;BMP280;65385;55.772;37.658;2023-04-25T05:54:14;99546.31;;;25.10
76541;BMP280;65385;55.772;37.658;2023-04-25T05:55:15;99546.59;;;25.38
76541;BMP280;65385;55.772;37.658;2023-04-25T05:56:16;99547.25;;;25.68
76541;BMP280;65385;55.772;37.658;2023-04-25T05:57:24;99543.66;;;25.98
76541;BMP280;65385;55.772;37.658;2023-04-25T05:58:25;99545.22;;;26.02
76541;BMP280;65385;55.772;37.658;2023-04-25T05:59:26;99537.34;;;26.34
76541;BMP280;65385;55.772;37.658;2023-04-25T06:00:26;99543.94;;;26.47
76541;BMP280;65385;55.772;37.658;2023-04-25T06:01:27;99541.22;;;26.40
76541;BMP280;65385;55.772;37.658;2023-04-25T06:02:28;99533.13;;;26.29
76541;BMP280;65385;55.772;37.658;2023-04-25T06:03:28;99536.22;;;26.35
76541;BMP280;65385;55.772;37.658;2023-04-25T06:04:31;99535.53;;;26.55
76541;BMP280;65385;55.772;37.658;2023-04-25T06:05:32;99538.22;;;26.48
76541;BMP280;65385;55.772;37.658;2023-04-25T06:06:33;99532.94;;;26.80
76541;BMP280;65385;55.772;37.658;2023-04-25T06:07:34;99530.69;;;27.10
76541;BMP280;65385;55.772;37.658;2023-04-25T06:08:36;99531.50;;;27.35
76541;BMP280;65385;55.772;37.658;2023-04-25T06:09:38;99526.13;;;27.60